sensor_id;sensor_type;location;lat;lon;timestamp;P1;durP1;ratioP1;P2;durP2;ratioP2
31308;SDS011;17936;52.446;10.840;2022-10-04T00:01:40;10.38;;;1.88;;
31308;SDS011;17936;52.446;10.840;2022-10-04T00:12:19;7.25;;;1.80;;
31308;SDS011;17936;52.446;10.840;2022-10-04T00:14:50;5.22;;;1.70;;
31308;SDS011;17936;52.446;10.840;2022-10-04T00:17:20;7.10;;;1.45;;
31308;SDS011;17936;52.446;10.840;2022-10-04T00:19:50;10.50;;;2.00;;
31308;SDS011;17936;52.446;10.840;2022-10-04T00:22:20;7.10;;;1.88;;
31308;SDS011;17936;52.446;10.840;2022-10-04T00:27:31;8.52;;;1.90;;
31308;SDS011;17936;52.446;10.840;2022-10-04T00:35:48;12.40;;;1.60;;
31308;SDS011;17936;52.446;10.840;2022-10-04T00:40:33;7.03;;;2.00;;
31308;SDS011;17936;52.446;10.840;2022-10-04T00:43:23;7.55;;;1.90;;
31308;SDS011;17936;52.446;10.840;2022-10-04T00:45:58;11.32;;;2.03;;
31308;SDS011;17936;52.446;10.840;2022-10-04T00:59:33;9.30;;;2.38;;
31308;SDS011;17936;52.446;10.840;2022-10-04T01:02:14;6.30;;;1.75;;
31308;SDS011;17936;52.446;10.840;2022-10-04T01:07:32;6.68;;;1.95;;
31308;SDS011;17936;52.446;10.840;2022-10-04T01:10:09;11.57;;;2.20;;
31308;SDS011;17936;52.446;10.840;2022-10-04T01:12:48;5.78;;;2.10;;
31308;SDS011;17936;52.446;10.840;2022-10-04T01:20:34;12.00;;;2.20;;
31308;SDS011;17936;52.446;10.840;2022-10-04T01:23:04;5.38;;;2.17;;
31308;SDS011;17936;52.446;10.840;2022-10-04T01:25:41;12.95;;;2.53;;
31308;SDS011;17936;52.446;10.840;2022-10-04T01:28:12;12.23;;;2.25;;
31308;SDS011;17936;52.446;10.840;2022-10-04T01:30:38;11.30;;;2.40;;
31308;SDS011;17936;52.446;10.840;2022-10-04T01:33:04;6.93;;;2.30;;
31308;SDS011;17936;52.446;10.840;2022-10-04T01:35:30;13.10;;;2.50;;
31308;SDS011;17936;52.446;10.840;2022-10-04T01:38:01;7.88;;;2.88;;
31308;SDS011;17936;52.446;10.840;2022-10-04T01:40:30;5.78;;;1.73;;
31308;SDS011;17936;52.446;10.840;2022-10-04T01:42:59;8.93;;;1.95;;
31308;SDS011;17936;52.446;10.840;2022-10-04T01:45:31;6.30;;;1.92;;
31308;SDS011;17936;52.446;10.840;2022-10-04T01:48:08;6.15;;;1.63;;
31308;SDS011;17936;52.446;10.840;2022-10-04T01:50:38;8.43;;;2.20;;
31308;SDS011;17936;52.446;10.840;2022-10-04T01:53:13;4.80;;;1.90;;
31308;SDS011;17936;52.446;10.840;2022-10-04T01:55:50;5.07;;;2.00;;
31308;SDS011;17936;52.446;10.840;2022-10-04T01:58:24;8.38;;;1.90;;
31308;SDS011;17936;52.446;10.840;2022-10-04T02:00:58;8.18;;;2.03;;
31308;SDS011;17936;52.446;10.840;2022-10-04T02:03:36;6.38;;;1.73;;
31308;SDS011;17936;52.446;10.840;2022-10-04T02:06:07;10.27;;;1.83;;
31308;SDS011;17936;52.446;10.840;2022-10-04T02:08:37;11.43;;;2.00;;
31308;SDS011;17936;52.446;10.840;2022-10-04T02:11:06;11.35;;;2.13;;
31308;SDS011;17936;52.446;10.840;2022-10-04T02:13:33;8.05;;;2.05;;
31308;SDS011;17936;52.446;10.840;2022-10-04T02:16:02;7.05;;;2.22;;
31308;SDS011;17936;52.446;10.840;2022-10-04T02:18:32;14.75;;;1.88;;
31308;SDS011;17936;52.446;10.840;2022-10-04T02:21:03;9.63;;;1.90;;
31308;SDS011;17936;52.446;10.840;2022-10-04T02:23:30;8.98;;;1.88;;
31308;SDS011;17936;52.446;10.840;2022-10-04T02:25:57;4.10;;;1.48;;
31308;SDS011;17936;52.446;10.840;2022-10-04T02:28:23;9.50;;;1.83;;
31308;SDS011;17936;52.446;10.840;2022-10-04T02:30:49;6.93;;;1.60;;
31308;SDS011;17936;52.446;10.840;2022-10-04T02:33:42;7.75;;;1.90;;
31308;SDS011;17936;52.446;10.840;2022-10-04T02:36:10;5.75;;;1.80;;
31308;SDS011;17936;52.446;10.840;2022-10-04T02:38:39;8.95;;;1.75;;
31308;SDS011;17936;52.446;10.840;2022-10-04T02:41:15;6.00;;;1.60;;
31308;SDS011;17936;52.446;10.840;2022-10-04T02:47:05;6.55;;;1.70;;
31308;SDS011;17936;52.446;10.840;2022-10-04T02:49:50;8.43;;;1.63;;
31308;SDS011;17936;52.446;10.840;2022-10-04T02:52:28;8.60;;;1.83;;
31308;SDS011;17936;52.446;10.840;2022-10-04T02:55:04;9.40;;;1.77;;
31308;SDS011;17936;52.446;10.840;2022-10-04T02:57:51;3.22;;;1.40;;
31308;SDS011;17936;52.446;10.840;2022-10-04T03:00:19;10.13;;;1.95;;
31308;SDS011;17936;52.446;10.840;2022-10-04T03:05:35;8.07;;;1.75;;
31308;SDS011;17936;52.446;10.840;2022-10-04T03:08:04;7.07;;;1.80;;
31308;SDS011;17936;52.446;10.840;2022-10-04T03:10:30;10.25;;;1.85;;
31308;SDS011;17936;52.446;10.840;2022-10-04T03:12:56;8.77;;;2.40;;
31308;SDS011;17936;52.446;10.840;2022-10-04T03:15:24;7.10;;;2.08;;
31308;SDS011;17936;52.446;10.840;2022-10-04T03:17:51;5.97;;;1.50;;
31308;SDS011;17936;52.446;10.840;2022-10-04T03:20:16;7.90;;;1.90;;
31308;SDS011;17936;52.446;10.840;2022-10-04T03:22:45;13.68;;;1.85;;
31308;SDS011;17936;52.446;10.840;2022-10-04T03:25:18;8.18;;;2.30;;
31308;SDS011;17936;52.446;10.840;2022-10-04T03:30:13;11.68;;;2.10;;
31308;SDS011;17936;52.446;10.840;2022-10-04T03:32:40;14.25;;;2.30;;
31308;SDS011;17936;52.446;10.840;2022-10-04T03:35:09;9.45;;;1.70;;
31308;SDS011;17936;52.446;10.840;2022-10-04T03:37:53;12.48;;;2.65;;
31308;SDS011;17936;52.446;10.840;2022-10-04T03:40:23;6.10;;;2.15;;
31308;SDS011;17936;52.446;10.840;2022-10-04T03:42:52;8.63;;;2.03;;
31308;SDS011;17936;52.446;10.840;2022-10-04T03:45:18;7.80;;;2.33;;
31308;SDS011;17936;52.446;10.840;2022-10-04T03:47:47;10.15;;;2.25;;
31308;SDS011;17936;52.446;10.840;2022-10-04T03:50:16;11.57;;;2.03;;
31308;SDS011;17936;52.446;10.840;2022-10-04T03:52:46;8.55;;;2.28;;
31308;SDS011;17936;52.446;10.840;2022-10-04T03:55:15;10.82;;;2.22;;
31308;SDS011;17936;52.446;10.840;2022-10-04T03:57:42;11.02;;;2.38;;
31308;SDS011;17936;52.446;10.840;2022-10-04T04:00:08;9.82;;;1.75;;
31308;SDS011;17936;52.446;10.840;2022-10-04T04:05:15;7.63;;;1.98;;
31308;SDS011;17936;52.446;10.840;2022-10-04T04:10:49;7.72;;;1.70;;
31308;SDS011;17936;52.446;10.840;2022-10-04T04:13:23;5.10;;;1.50;;
31308;SDS011;17936;52.446;10.840;2022-10-04T04:16:02;11.77;;;1.85;;
31308;SDS011;17936;52.446;10.840;2022-10-04T04:18:30;18.70;;;2.05;;
31308;SDS011;17936;52.446;10.840;2022-10-04T04:20:59;8.43;;;1.65;;
31308;SDS011;17936;52.446;10.840;2022-10-04T04:23:28;8.20;;;1.83;;
31308;SDS011;17936;52.446;10.840;2022-10-04T04:31:45;8.05;;;1.50;;
31308;SDS011;17936;52.446;10.840;2022-10-04T04:34:21;5.30;;;1.42;;
31308;SDS011;17936;52.446;10.840;2022-10-04T04:36:56;14.18;;;1.67;;
31308;SDS011;17936;52.446;10.840;2022-10-04T04:39:23;9.43;;;1.77;;
31308;SDS011;17936;52.446;10.840;2022-10-04T04:42:17;7.20;;;1.92;;
31308;SDS011;17936;52.446;10.840;2022-10-04T04:44:51;4.70;;;1.42;;
31308;SDS011;17936;52.446;10.840;2022-10-04T04:47:25;10.23;;;1.70;;
31308;SDS011;17936;52.446;10.840;2022-10-04T04:53:02;7.53;;;2.20;;
31308;SDS011;17936;52.446;10.840;2022-10-04T04:55:33;5.55;;;1.50;;
31308;SDS011;17936;52.446;10.840;2022-10-04T04:58:06;9.60;;;1.80;;
31308;SDS011;17936;52.446;10.840;2022-10-04T05:00:35;6.45;;;1.55;;
31308;SDS011;17936;52.446;10.840;2022-10-04T05:03:03;10.25;;;1.75;;
31308;SDS011;17936;52.446;10.840;2022-10-04T05:05:32;8.13;;;1.42;;
31308;SDS011;17936;52.446;10.840;2022-10-04T05:08:03;5.35;;;1.35;;
31308;SDS011;17936;52.446;10.840;2022-10-04T05:10:39;5.90;;;1.67;;
31308;SDS011;17936;52.446;10.840;2022-10-04T05:13:09;7.40;;;1.67;;
31308;SDS011;17936;52.446;10.840;2022-10-04T05:15:36;13.40;;;1.70;;
31308;SDS011;17936;52.446;10.840;2022-10-04T05:21:03;5.38;;;1.50;;
31308;SDS011;17936;52.446;10.840;2022-10-04T05:23:32;8.85;;;1.67;;
31308;SDS011;17936;52.446;10.840;2022-10-04T05:25:59;9.32;;;2.05;;
31308;SDS011;17936;52.446;10.840;2022-10-04T05:28:28;7.68;;;1.95;;
31308;SDS011;17936;52.446;10.840;2022-10-04T05:31:01;8.20;;;2.33;;
31308;SDS011;17936;52.446;10.840;2022-10-04T05:33:44;6.75;;;1.75;;
31308;SDS011;17936;52.446;10.840;2022-10-04T05:36:25;8.57;;;1.85;;
31308;SDS011;17936;52.446;10.840;2022-10-04T05:39:10;9.50;;;1.85;;
31308;SDS011;17936;52.446;10.840;2022-10-04T05:44:26;7.28;;;2.03;;
31308;SDS011;17936;52.446;10.840;2022-10-04T05:46:56;7.15;;;1.67;;
31308;SDS011;17936;52.446;10.840;2022-10-04T05:49:24;11.95;;;1.60;;
31308;SDS011;17936;52.446;10.840;2022-10-04T05:51:54;9.55;;;1.67;;
31308;SDS011;17936;52.446;10.840;2022-10-04T05:54:25;5.85;;;1.55;;
31308;SDS011;17936;52.446;10.840;2022-10-04T06:05:41;7.28;;;1.73;;
31308;SDS011;17936;52.446;10.840;2022-10-04T06:08:16;10.07;;;1.77;;
31308;SDS011;17936;52.446;10.840;2022-10-04T06:11:04;6.60;;;1.90;;
31308;SDS011;17936;52.446;10.840;2022-10-04T06:16:59;6.88;;;1.60;;
31308;SDS011;17936;52.446;10.840;2022-10-04T06:19:54;5.90;;;1.38;;
31308;SDS011;17936;52.446;10.840;2022-10-04T06:22:33;9.70;;;2.10;;
31308;SDS011;17936;52.446;10.840;2022-10-04T06:25:11;8.43;;;2.20;;
31308;SDS011;17936;52.446;10.840;2022-10-04T06:28:03;7.13;;;1.60;;
31308;SDS011;17936;52.446;10.840;2022-10-04T06:39:37;6.00;;;2.28;;
31308;SDS011;17936;52.446;10.840;2022-10-04T06:42:21;12.40;;;2.00;;
31308;SDS011;17936;52.446;10.840;2022-10-04T06:45:25;6.47;;;1.58;;
31308;SDS011;17936;52.446;10.840;2022-10-04T06:48:00;5.15;;;1.40;;
31308;SDS011;17936;52.446;10.840;2022-10-04T06:50:48;6.60;;;1.45;;
31308;SDS011;17936;52.446;10.840;2022-10-04T06:53:29;8.43;;;1.15;;
31308;SDS011;17936;52.446;10.840;2022-10-04T07:02:38;7.43;;;1.60;;
31308;SDS011;17936;52.446;10.840;2022-10-04T07:07:56;7.97;;;1.90;;
31308;SDS011;17936;52.446;10.840;2022-10-04T07:10:55;7.15;;;1.50;;
31308;SDS011;17936;52.446;10.840;2022-10-04T07:15:59;8.07;;;1.85;;
31308;SDS011;17936;52.446;10.840;2022-10-04T07:19:19;9.48;;;1.63;;
31308;SDS011;17936;52.446;10.840;2022-10-04T07:27:27;8.25;;;1.98;;
31308;SDS011;17936;52.446;10.840;2022-10-04T07:30:09;9.13;;;1.88;;
31308;SDS011;17936;52.446;10.840;2022-10-04T07:32:43;6.57;;;1.55;;
31308;SDS011;17936;52.446;10.840;2022-10-04T07:35:25;9.80;;;1.80;;
31308;SDS011;17936;52.446;10.840;2022-10-04T07:40:42;9.77;;;1.63;;
31308;SDS011;17936;52.446;10.840;2022-10-04T07:43:31;11.82;;;2.03;;
31308;SDS011;17936;52.446;10.840;2022-10-04T07:46:02;7.47;;;1.65;;
31308;SDS011;17936;52.446;10.840;2022-10-04T07:48:38;7.20;;;1.80;;
31308;SDS011;17936;52.446;10.840;2022-10-04T07:53:57;7.72;;;1.83;;
31308;SDS011;17936;52.446;10.840;2022-10-04T07:56:46;9.10;;;1.60;;
31308;SDS011;17936;52.446;10.840;2022-10-04T07:59:27;9.02;;;1.65;;
31308;SDS011;17936;52.446;10.840;2022-10-04T08:05:16;7.57;;;1.52;;
31308;SDS011;17936;52.446;10.840;2022-10-04T08:07:50;6.47;;;1.60;;
31308;SDS011;17936;52.446;10.840;2022-10-04T08:10:27;8.68;;;1.70;;
31308;SDS011;17936;52.446;10.840;2022-10-04T08:15:58;6.13;;;1.60;;
31308;SDS011;17936;52.446;10.840;2022-10-04T08:21:17;6.53;;;1.60;;
31308;SDS011;17936;52.446;10.840;2022-10-04T08:34:50;7.55;;;2.15;;
31308;SDS011;17936;52.446;10.840;2022-10-04T08:37:27;7.80;;;2.10;;
31308;SDS011;17936;52.446;10.840;2022-10-04T08:43:22;9.32;;;2.05;;
31308;SDS011;17936;52.446;10.840;2022-10-04T08:46:19;8.05;;;1.92;;
31308;SDS011;17936;52.446;10.840;2022-10-04T08:54:54;5.72;;;1.60;;
31308;SDS011;17936;52.446;10.840;2022-10-04T08:58:04;8.77;;;1.70;;
31308;SDS011;17936;52.446;10.840;2022-10-04T09:09:21;9.13;;;2.28;;
31308;SDS011;17936;52.446;10.840;2022-10-04T09:15:02;10.32;;;1.65;;
31308;SDS011;17936;52.446;10.840;2022-10-04T09:17:52;10.65;;;1.63;;
31308;SDS011;17936;52.446;10.840;2022-10-04T09:20:55;7.38;;;1.83;;
31308;SDS011;17936;52.446;10.840;2022-10-04T09:31:42;12.82;;;2.58;;
31308;SDS011;17936;52.446;10.840;2022-10-04T09:37:23;5.10;;;1.65;;
31308;SDS011;17936;52.446;10.840;2022-10-04T09:40:20;14.77;;;2.10;;
31308;SDS011;17936;52.446;10.840;2022-10-04T09:45:59;7.30;;;2.33;;
31308;SDS011;17936;52.446;10.840;2022-10-04T09:48:53;10.93;;;2.15;;
31308;SDS011;17936;52.446;10.840;2022-10-04T09:51:55;6.55;;;1.88;;
31308;SDS011;17936;52.446;10.840;2022-10-04T10:07:57;7.75;;;1.75;;
31308;SDS011;17936;52.446;10.840;2022-10-04T10:50:15;9.10;;;1.35;;
31308;SDS011;17936;52.446;10.840;2022-10-04T10:55:56;5.70;;;1.40;;
31308;SDS011;17936;52.446;10.840;2022-10-04T10:58:38;7.97;;;1.48;;
31308;SDS011;17936;52.446;10.840;2022-10-04T11:10:04;6.53;;;1.50;;
31308;SDS011;17936;52.446;10.840;2022-10-04T11:12:54;6.55;;;1.45;;
31308;SDS011;17936;52.446;10.840;2022-10-04T11:15:51;5.38;;;1.35;;
31308;SDS011;17936;52.446;10.840;2022-10-04T11:18:49;8.95;;;1.35;;
31308;SDS011;17936;52.446;10.840;2022-10-04T11:21:38;4.78;;;1.38;;
31308;SDS011;17936;52.446;10.840;2022-10-04T11:24:45;7.40;;;1.30;;
31308;SDS011;17936;52.446;10.840;2022-10-04T11:27:48;8.82;;;1.10;;
31308;SDS011;17936;52.446;10.840;2022-10-04T11:30:18;9.20;;;1.45;;
31308;SDS011;17936;52.446;10.840;2022-10-04T11:32:53;5.50;;;0.98;;
31308;SDS011;17936;52.446;10.840;2022-10-04T11:35:52;8.98;;;1.33;;
31308;SDS011;17936;52.446;10.840;2022-10-04T11:38:43;8.45;;;1.10;;
31308;SDS011;17936;52.446;10.840;2022-10-04T11:41:50;5.60;;;1.17;;
31308;SDS011;17936;52.446;10.840;2022-10-04T11:58:13;5.80;;;1.58;;
31308;SDS011;17936;52.446;10.840;2022-10-04T12:06:40;8.77;;;1.30;;
31308;SDS011;17936;52.446;10.840;2022-10-04T12:09:44;3.55;;;0.90;;
31308;SDS011;17936;52.446;10.840;2022-10-04T12:12:27;8.07;;;1.15;;
31308;SDS011;17936;52.446;10.840;2022-10-04T12:17:48;8.80;;;1.38;;
31308;SDS011;17936;52.446;10.840;2022-10-04T12:20:36;4.28;;;1.10;;
31308;SDS011;17936;52.446;10.840;2022-10-04T12:39:41;6.60;;;1.20;;
31308;SDS011;17936;52.446;10.840;2022-10-04T12:45:19;5.88;;;1.42;;
31308;SDS011;17936;52.446;10.840;2022-10-04T12:48:26;8.52;;;1.42;;
31308;SDS011;17936;52.446;10.840;2022-10-04T12:51:41;7.43;;;1.20;;
31308;SDS011;17936;52.446;10.840;2022-10-04T12:54:38;7.72;;;1.38;;
31308;SDS011;17936;52.446;10.840;2022-10-04T12:57:23;5.75;;;1.38;;
31308;SDS011;17936;52.446;10.840;2022-10-04T13:02:51;5.80;;;1.05;;
31308;SDS011;17936;52.446;10.840;2022-10-04T13:17:42;11.80;;;1.40;;
31308;SDS011;17936;52.446;10.840;2022-10-04T13:20:38;6.85;;;1.65;;
31308;SDS011;17936;52.446;10.840;2022-10-04T13:25:58;6.00;;;1.42;;
31308;SDS011;17936;52.446;10.840;2022-10-04T13:31:31;4.57;;;1.38;;
31308;SDS011;17936;52.446;10.840;2022-10-04T13:36:48;5.80;;;1.20;;
31308;SDS011;17936;52.446;10.840;2022-10-04T13:40:19;3.28;;;1.30;;
31308;SDS011;17936;52.446;10.840;2022-10-04T13:42:37;4.35;;;1.10;;
31308;SDS011;17936;52.446;10.840;2022-10-04T13:45:33;5.18;;;1.40;;
31308;SDS011;17936;52.446;10.840;2022-10-04T13:51:17;2.38;;;1.23;;
31308;SDS011;17936;52.446;10.840;2022-10-04T13:57:27;3.05;;;1.02;;
31308;SDS011;17936;52.446;10.840;2022-10-04T14:00:11;3.38;;;1.23;;
31308;SDS011;17936;52.446;10.840;2022-10-04T14:05:16;5.88;;;1.40;;
31308;SDS011;17936;52.446;10.840;2022-10-04T14:13:34;5.60;;;1.20;;
31308;SDS011;17936;52.446;10.840;2022-10-04T14:16:36;4.05;;;1.38;;
31308;SDS011;17936;52.446;10.840;2022-10-04T14:22:12;4.28;;;1.50;;
31308;SDS011;17936;52.446;10.840;2022-10-04T14:25:16;4.72;;;1.35;;
31308;SDS011;17936;52.446;10.840;2022-10-04T14:27:55;5.20;;;1.40;;
31308;SDS011;17936;52.446;10.840;2022-10-04T14:30:50;3.78;;;1.35;;
31308;SDS011;17936;52.446;10.840;2022-10-04T14:33:52;3.55;;;1.08;;
31308;SDS011;17936;52.446;10.840;2022-10-04T14:36:42;4.70;;;1.45;;
31308;SDS011;17936;52.446;10.840;2022-10-04T14:39:33;5.88;;;1.40;;
31308;SDS011;17936;52.446;10.840;2022-10-04T14:42:26;6.82;;;1.17;;
31308;SDS011;17936;52.446;10.840;2022-10-04T14:50:46;6.18;;;1.38;;
31308;SDS011;17936;52.446;10.840;2022-10-04T14:53:41;4.07;;;1.52;;
31308;SDS011;17936;52.446;10.840;2022-10-04T14:56:18;4.65;;;1.40;;
31308;SDS011;17936;52.446;10.840;2022-10-04T15:02:09;3.78;;;1.50;;
31308;SDS011;17936;52.446;10.840;2022-10-04T15:11:03;5.15;;;1.50;;
31308;SDS011;17936;52.446;10.840;2022-10-04T15:18:58;3.00;;;1.35;;
31308;SDS011;17936;52.446;10.840;2022-10-04T15:24:51;3.97;;;1.38;;
31308;SDS011;17936;52.446;10.840;2022-10-04T15:27:22;5.07;;;1.50;;
31308;SDS011;17936;52.446;10.840;2022-10-04T15:32:44;4.47;;;1.77;;
31308;SDS011;17936;52.446;10.840;2022-10-04T15:38:23;3.83;;;1.13;;
31308;SDS011;17936;52.446;10.840;2022-10-04T15:55:30;5.88;;;1.65;;
31308;SDS011;17936;52.446;10.840;2022-10-04T15:58:32;4.50;;;1.10;;
31308;SDS011;17936;52.446;10.840;2022-10-04T16:01:25;7.15;;;1.85;;
31308;SDS011;17936;52.446;10.840;2022-10-04T16:04:29;6.65;;;1.70;;
31308;SDS011;17936;52.446;10.840;2022-10-04T16:07:09;6.35;;;1.63;;
31308;SDS011;17936;52.446;10.840;2022-10-04T16:10:18;7.80;;;1.98;;
31308;SDS011;17936;52.446;10.840;2022-10-04T16:13:00;6.40;;;1.80;;
31308;SDS011;17936;52.446;10.840;2022-10-04T16:21:34;4.85;;;1.33;;
31308;SDS011;17936;52.446;10.840;2022-10-04T16:29:24;4.90;;;1.73;;
31308;SDS011;17936;52.446;10.840;2022-10-04T16:32:12;5.50;;;1.73;;
31308;SDS011;17936;52.446;10.840;2022-10-04T16:34:45;3.35;;;1.58;;
31308;SDS011;17936;52.446;10.840;2022-10-04T16:39:57;4.63;;;2.15;;
31308;SDS011;17936;52.446;10.840;2022-10-04T16:42:51;5.35;;;2.05;;
31308;SDS011;17936;52.446;10.840;2022-10-04T16:45:31;3.60;;;1.80;;
31308;SDS011;17936;52.446;10.840;2022-10-04T16:47:59;5.13;;;1.70;;
31308;SDS011;17936;52.446;10.840;2022-10-04T16:59:42;5.38;;;1.92;;
31308;SDS011;17936;52.446;10.840;2022-10-04T17:04:55;5.63;;;2.10;;
31308;SDS011;17936;52.446;10.840;2022-10-04T17:07:50;5.40;;;2.05;;
31308;SDS011;17936;52.446;10.840;2022-10-04T17:10:42;5.05;;;2.17;;
31308;SDS011;17936;52.446;10.840;2022-10-04T17:13:33;8.95;;;2.80;;
31308;SDS011;17936;52.446;10.840;2022-10-04T17:21:14;9.18;;;3.15;;
31308;SDS011;17936;52.446;10.840;2022-10-04T17:24:04;4.53;;;2.13;;
31308;SDS011;17936;52.446;10.840;2022-10-04T17:30:01;6.40;;;3.25;;
31308;SDS011;17936;52.446;10.840;2022-10-04T17:32:43;9.77;;;2.60;;
31308;SDS011;17936;52.446;10.840;2022-10-04T17:38:32;11.23;;;4.03;;
31308;SDS011;17936;52.446;10.840;2022-10-04T17:41:26;11.07;;;4.38;;
31308;SDS011;17936;52.446;10.840;2022-10-04T17:44:18;15.95;;;4.28;;
31308;SDS011;17936;52.446;10.840;2022-10-04T17:47:07;8.25;;;4.15;;
31308;SDS011;17936;52.446;10.840;2022-10-04T17:49:38;7.88;;;3.72;;
31308;SDS011;17936;52.446;10.840;2022-10-04T17:52:33;9.10;;;4.63;;
31308;SDS011;17936;52.446;10.840;2022-10-04T17:55:47;12.50;;;5.15;;
31308;SDS011;17936;52.446;10.840;2022-10-04T17:58:18;12.60;;;5.10;;
31308;SDS011;17936;52.446;10.840;2022-10-04T18:00:58;11.38;;;5.68;;
31308;SDS011;17936;52.446;10.840;2022-10-04T18:03:35;8.98;;;5.07;;
31308;SDS011;17936;52.446;10.840;2022-10-04T18:06:13;10.27;;;4.75;;
31308;SDS011;17936;52.446;10.840;2022-10-04T18:08:59;8.88;;;4.13;;
31308;SDS011;17936;52.446;10.840;2022-10-04T18:11:40;10.75;;;4.10;;
31308;SDS011;17936;52.446;10.840;2022-10-04T18:17:24;9.07;;;4.20;;
31308;SDS011;17936;52.446;10.840;2022-10-04T18:23:00;11.20;;;4.53;;
31308;SDS011;17936;52.446;10.840;2022-10-04T18:25:42;9.90;;;4.40;;
31308;SDS011;17936;52.446;10.840;2022-10-04T18:30:34;8.65;;;4.38;;
31308;SDS011;17936;52.446;10.840;2022-10-04T18:33:25;8.93;;;4.55;;
31308;SDS011;17936;52.446;10.840;2022-10-04T18:36:18;8.48;;;4.15;;
31308;SDS011;17936;52.446;10.840;2022-10-04T18:41:29;5.72;;;3.65;;
31308;SDS011;17936;52.446;10.840;2022-10-04T18:44:20;6.68;;;3.08;;
31308;SDS011;17936;52.446;10.840;2022-10-04T18:46:57;5.97;;;3.85;;
31308;SDS011;17936;52.446;10.840;2022-10-04T18:49:30;10.65;;;3.90;;
31308;SDS011;17936;52.446;10.840;2022-10-04T18:52:18;9.02;;;3.53;;
31308;SDS011;17936;52.446;10.840;2022-10-04T19:04:40;6.72;;;3.42;;
31308;SDS011;17936;52.446;10.840;2022-10-04T19:10:22;8.75;;;3.78;;
31308;SDS011;17936;52.446;10.840;2022-10-04T19:18:56;8.70;;;3.67;;
31308;SDS011;17936;52.446;10.840;2022-10-04T19:21:46;5.57;;;3.30;;
31308;SDS011;17936;52.446;10.840;2022-10-04T19:27:29;8.48;;;4.30;;
31308;SDS011;17936;52.446;10.840;2022-10-04T19:30:17;8.60;;;5.32;;
31308;SDS011;17936;52.446;10.840;2022-10-04T19:35:27;9.48;;;5.00;;
31308;SDS011;17936;52.446;10.840;2022-10-04T19:40:57;11.85;;;4.10;;
31308;SDS011;17936;52.446;10.840;2022-10-04T19:43:43;8.80;;;3.28;;
31308;SDS011;17936;52.446;10.840;2022-10-04T19:46:26;8.50;;;3.25;;
31308;SDS011;17936;52.446;10.840;2022-10-04T19:49:19;5.55;;;3.15;;
31308;SDS011;17936;52.446;10.840;2022-10-04T19:52:09;10.77;;;3.08;;
31308;SDS011;17936;52.446;10.840;2022-10-04T19:54:40;4.75;;;2.80;;
31308;SDS011;17936;52.446;10.840;2022-10-04T19:57:09;7.10;;;2.95;;
31308;SDS011;17936;52.446;10.840;2022-10-04T19:59:40;6.68;;;3.65;;
31308;SDS011;17936;52.446;10.840;2022-10-04T20:02:10;16.23;;;5.18;;
31308;SDS011;17936;52.446;10.840;2022-10-04T20:04:36;10.02;;;4.55;;
31308;SDS011;17936;52.446;10.840;2022-10-04T20:13:12;4.78;;;2.67;;
31308;SDS011;17936;52.446;10.840;2022-10-04T20:15:45;4.85;;;3.00;;
31308;SDS011;17936;52.446;10.840;2022-10-04T20:26:09;5.25;;;3.10;;
31308;SDS011;17936;52.446;10.840;2022-10-04T20:28:36;5.15;;;2.28;;
31308;SDS011;17936;52.446;10.840;2022-10-04T20:31:09;4.90;;;2.00;;
31308;SDS011;17936;52.446;10.840;2022-10-04T20:33:55;5.50;;;2.20;;
31308;SDS011;17936;52.446;10.840;2022-10-04T20:42:09;11.35;;;2.42;;
31308;SDS011;17936;52.446;10.840;2022-10-04T20:50:29;5.97;;;2.30;;
31308;SDS011;17936;52.446;10.840;2022-10-04T20:53:02;8.90;;;1.70;;
31308;SDS011;17936;52.446;10.840;2022-10-04T20:55:41;6.10;;;2.05;;
31308;SDS011;17936;52.446;10.840;2022-10-04T20:58:20;4.13;;;1.65;;
31308;SDS011;17936;52.446;10.840;2022-10-04T21:01:00;8.65;;;2.40;;
31308;SDS011;17936;52.446;10.840;2022-10-04T21:03:37;9.43;;;2.15;;
31308;SDS011;17936;52.446;10.840;2022-10-04T21:06:04;4.50;;;1.70;;
31308;SDS011;17936;52.446;10.840;2022-10-04T21:08:32;2.88;;;1.77;;
31308;SDS011;17936;52.446;10.840;2022-10-04T21:11:06;4.38;;;2.17;;
31308;SDS011;17936;52.446;10.840;2022-10-04T21:13:37;7.20;;;2.17;;
31308;SDS011;17936;52.446;10.840;2022-10-04T21:16:46;3.90;;;1.92;;
31308;SDS011;17936;52.446;10.840;2022-10-04T21:21:54;5.38;;;1.70;;
31308;SDS011;17936;52.446;10.840;2022-10-04T21:24:36;4.85;;;2.03;;
31308;SDS011;17936;52.446;10.840;2022-10-04T21:27:04;3.45;;;1.77;;
31308;SDS011;17936;52.446;10.840;2022-10-04T21:29:32;7.65;;;2.00;;
31308;SDS011;17936;52.446;10.840;2022-10-04T21:31:58;6.53;;;2.40;;
31308;SDS011;17936;52.446;10.840;2022-10-04T21:34:23;7.88;;;2.00;;
31308;SDS011;17936;52.446;10.840;2022-10-04T21:36:49;3.90;;;1.90;;
31308;SDS011;17936;52.446;10.840;2022-10-04T21:39:14;4.78;;;2.08;;
31308;SDS011;17936;52.446;10.840;2022-10-04T21:41:40;6.35;;;2.28;;
31308;SDS011;17936;52.446;10.840;2022-10-04T21:44:06;7.53;;;1.90;;
31308;SDS011;17936;52.446;10.840;2022-10-04T21:46:31;5.78;;;2.13;;
31308;SDS011;17936;52.446;10.840;2022-10-04T21:48:57;3.90;;;2.22;;
31308;SDS011;17936;52.446;10.840;2022-10-04T21:51:22;5.32;;;1.90;;
31308;SDS011;17936;52.446;10.840;2022-10-04T21:53:48;6.22;;;1.73;;
31308;SDS011;17936;52.446;10.840;2022-10-04T21:56:13;5.43;;;2.15;;
31308;SDS011;17936;52.446;10.840;2022-10-04T21:58:39;9.70;;;2.10;;
31308;SDS011;17936;52.446;10.840;2022-10-04T22:01:04;7.85;;;2.38;;
31308;SDS011;17936;52.446;10.840;2022-10-04T22:03:30;7.07;;;2.22;;
31308;SDS011;17936;52.446;10.840;2022-10-04T22:05:56;5.35;;;2.22;;
31308;SDS011;17936;52.446;10.840;2022-10-04T22:08:21;6.10;;;2.10;;
31308;SDS011;17936;52.446;10.840;2022-10-04T22:10:47;3.50;;;1.83;;
31308;SDS011;17936;52.446;10.840;2022-10-04T22:13:12;6.20;;;2.20;;
31308;SDS011;17936;52.446;10.840;2022-10-04T22:15:38;3.97;;;2.10;;
31308;SDS011;17936;52.446;10.840;2022-10-04T22:18:04;6.95;;;2.05;;
31308;SDS011;17936;52.446;10.840;2022-10-04T22:20:29;9.50;;;3.38;;
31308;SDS011;17936;52.446;10.840;2022-10-04T22:22:55;8.68;;;3.22;;
31308;SDS011;17936;52.446;10.840;2022-10-04T22:25:22;10.95;;;2.60;;
31308;SDS011;17936;52.446;10.840;2022-10-04T22:27:49;5.45;;;2.30;;
31308;SDS011;17936;52.446;10.840;2022-10-04T22:30:20;4.47;;;2.10;;
31308;SDS011;17936;52.446;10.840;2022-10-04T22:32:47;5.72;;;2.40;;
31308;SDS011;17936;52.446;10.840;2022-10-04T22:35:15;6.18;;;2.25;;
31308;SDS011;17936;52.446;10.840;2022-10-04T22:37:42;5.35;;;2.13;;
31308;SDS011;17936;52.446;10.840;2022-10-04T22:40:19;5.15;;;2.30;;
31308;SDS011;17936;52.446;10.840;2022-10-04T22:42:48;6.80;;;2.17;;
31308;SDS011;17936;52.446;10.840;2022-10-04T22:45:34;6.78;;;2.53;;
31308;SDS011;17936;52.446;10.840;2022-10-04T22:48:00;4.90;;;2.38;;
31308;SDS011;17936;52.446;10.840;2022-10-04T22:50:35;6.25;;;2.17;;
31308;SDS011;17936;52.446;10.840;2022-10-04T22:53:12;6.57;;;2.08;;
31308;SDS011;17936;52.446;10.840;2022-10-04T22:55:43;3.85;;;2.13;;
31308;SDS011;17936;52.446;10.840;2022-10-04T22:58:13;10.32;;;2.10;;
31308;SDS011;17936;52.446;10.840;2022-10-04T23:00:39;7.95;;;1.85;;
31308;SDS011;17936;52.446;10.840;2022-10-04T23:03:17;3.58;;;1.95;;
31308;SDS011;17936;52.446;10.840;2022-10-04T23:05:52;3.22;;;2.05;;
31308;SDS011;17936;52.446;10.840;2022-10-04T23:08:18;4.43;;;2.20;;
31308;SDS011;17936;52.446;10.840;2022-10-04T23:10:44;4.35;;;2.10;;
31308;SDS011;17936;52.446;10.840;2022-10-04T23:13:10;6.13;;;2.25;;
31308;SDS011;17936;52.446;10.840;2022-10-04T23:15:35;4.32;;;2.00;;